Time,TemperatureF,DewpointF,PressureIn,WindDirection,WindDirectionDegrees,WindSpeedMPH,WindSpeedGustMPH,Humidity,HourlyPrecipIn,Conditions,Clouds,dailyrainin,SoftwareType,DateUTC
2013-10-16 00:01:00,50.8,48.6,30.04,North,355,3.0,6.0,92,0.00,,,0.00,WeatherCatV1.20B785,2013-10-16 05:01:00,
2013-10-16 00:06:00,50.9,48.7,30.04,NNW,327,0.0,3.0,92,0.00,,,0.00,WeatherCatV1.20B785,2013-10-16 05:06:00,
2013-10-16 00:11:00,51.0,48.5,30.04,NNW,334,2.0,6.0,91,0.00,,,0.00,WeatherCatV1.20B785,2013-10-16 05:11:00,
2013-10-16 00:16:00,51.0,48.2,30.04,NNW,338,6.0,6.0,90,0.00,,,0.00,WeatherCatV1.20B785,2013-10-16 05:16:00,
2013-10-16 00:21:00,51.0,48.2,30.05,North,0,3.0,4.0,90,0.00,,,0.00,WeatherCatV1.20B785,2013-10-16 05:21:00,
2013-10-16 00:26:00,51.1,48.0,30.04,NW,323,6.0,7.0,89,0.00,,,0.00,WeatherCatV1.20B785,2013-10-16 05:26:00,
2013-10-16 00:31:00,51.1,48.0,30.04,NNW,339,3.0,4.0,89,0.00,,,0.00,WeatherCatV1.20B785,2013-10-16 05:31:00,
2013-10-16 00:36:00,51.1,47.7,30.04,NNW,332,4.0,8.0,88,0.00,,,0.00,WeatherCatV1.20B785,2013-10-16 05:36:00,
2013-10-16 00:41:00,51.0,47.3,30.04,NNW,331,4.0,8.0,87,0.00,,,0.00,WeatherCatV1.20B785,2013-10-16 05:41:00,
2013-10-16 00:46:00,51.0,47.3,30.04,NNW,337,4.0,10.0,87,0.00,,,0.00,WeatherCatV1.20B785,2013-10-16 05:46:00,
2013-10-16 00:51:00,51.0,47.0,30.05,NE,39,3.0,9.0,86,0.00,,,0.00,WeatherCatV1.20B785,2013-10-16 05:51:00,
2013-10-16 00:56:00,50.9,46.9,30.05,NNW,336,8.0,9.0,86,0.00,,,0.00,WeatherCatV1.20B785,2013-10-16 05:56:00,
2013-10-16 01:01:00,50.8,46.8,30.05,NW,323,6.0,8.0,86,0.00,,,0.00,WeatherCatV1.20B785,2013-10-16 06:01:00,
2013-10-16 01:06:00,50.7,46.7,30.05,NNW,337,9.0,9.0,86,0.00,,,0.00,WeatherCatV1.20B785,2013-10-16 06:06:00,
2013-10-16 01:11:00,50.6,46.6,30.06,NNW,329,3.0,7.0,86,0.00,,,0.00,WeatherCatV1.20B785,2013-10-16 06:11:00,
2013-10-16 01:16:00,50.5,46.5,30.06,North,355,3.0,6.0,86,0.00,,,0.00,WeatherCatV1.20B785,2013-10-16 06:16:00,
2013-10-16 01:21:00,50.4,46.4,30.07,NNW,331,4.0,5.0,86,0.00,,,0.00,WeatherCatV1.20B785,2013-10-16 06:21:00,
2013-10-16 01:26:00,50.3,46.3,30.07,NW,323,3.0,5.0,86,0.00,,,0.00,WeatherCatV1.20B785,2013-10-16 06:26:00,
2013-10-16 01:31:00,50.1,46.1,30.07,NW,305,4.0,6.0,86,0.00,,,0.00,WeatherCatV1.20B785,2013-10-16 06:31:00,
2013-10-16 01:36:00,50.0,46.0,30.08,NNW,340,4.0,4.0,86,0.00,,,0.00,WeatherCatV1.20B785,2013-10-16 06:36:00,
2013-10-16 01:41:00,49.8,45.8,30.07,North,0,3.0,6.0,86,0.00,,,0.00,WeatherCatV1.20B785,2013-10-16 06:41:00,
2013-10-16 01:46:00,49.7,45.4,30.08,NNW,336,4.0,6.0,85,0.00,,,0.00,WeatherCatV1.20B785,2013-10-16 06:46:00,
2013-10-16 01:51:00,49.6,45.3,30.08,NNW,336,3.0,5.0,85,0.00,,,0.00,WeatherCatV1.20B785,2013-10-16 06:51:00,
2013-10-16 01:56:00,49.4,45.1,30.08,NNW,328,5.0,8.0,85,0.00,,,0.00,WeatherCatV1.20B785,2013-10-16 06:56:00,
2013-10-16 02:01:00,49.2,44.6,30.09,North,355,7.0,7.0,84,0.00,,,0.00,WeatherCatV1.20B785,2013-10-16 07:01:00,
2013-10-16 02:06:00,49.0,44.4,30.08,NNW,346,3.0,6.0,84,0.00,,,0.00,WeatherCatV1.20B785,2013-10-16 07:06:00,
2013-10-16 02:11:00,49.0,44.4,30.09,NW,326,4.0,5.0,84,0.00,,,0.00,WeatherCatV1.20B785,2013-10-16 07:11:00,
2013-10-16 02:16:00,48.8,44.2,30.09,NW,314,3.0,3.0,84,0.00,,,0.00,WeatherCatV1.20B785,2013-10-16 07:16:00,
2013-10-16 02:21:00,48.7,44.1,30.09,NW,304,4.0,5.0,84,0.00,,,0.00,WeatherCatV1.20B785,2013-10-16 07:21:00,
2013-10-16 02:26:00,48.6,44.0,30.09,NNW,346,1.0,3.0,84,0.00,,,0.00,WeatherCatV1.20B785,2013-10-16 07:26:00,
2013-10-16 02:31:00,48.5,43.9,30.09,NNW,329,3.0,8.0,84,0.00,,,0.00,WeatherCatV1.20B785,2013-10-16 07:31:00,
2013-10-16 02:36:00,48.4,43.8,30.09,WNW,303,2.0,5.0,84,0.00,,,0.00,WeatherCatV1.20B785,2013-10-16 07:36:00,
2013-10-16 02:41:00,48.3,43.7,30.09,WNW,302,0.0,3.0,84,0.00,,,0.00,WeatherCatV1.20B785,2013-10-16 07:41:00,
2013-10-16 02:46:00,48.2,43.6,30.09,NNW,328,3.0,5.0,84,0.00,,,0.00,WeatherCatV1.20B785,2013-10-16 07:46:00,
2013-10-16 02:51:00,48.1,43.5,30.09,North,0,2.0,4.0,84,0.00,,,0.00,WeatherCatV1.20B785,2013-10-16 07:51:00,
2013-10-16 02:56:00,48.0,43.4,30.09,NNW,346,3.0,4.0,84,0.00,,,0.00,WeatherCatV1.20B785,2013-10-16 07:56:00,
2013-10-16 03:01:00,48.0,43.4,30.09,NNW,329,0.0,3.0,84,0.00,,,0.00,WeatherCatV1.20B785,2013-10-16 08:01:00,
2013-10-16 03:06:00,47.9,43.3,30.09,NNW,331,0.0,2.0,84,0.00,,,0.00,WeatherCatV1.20B785,2013-10-16 08:06:00,
2013-10-16 03:11:00,47.9,43.6,30.09,NNW,331,0.0,2.0,85,0.00,,,0.00,WeatherCatV1.20B785,2013-10-16 08:11:00,
2013-10-16 03:16:00,47.8,43.5,30.09,NNW,331,0.0,1.0,85,0.00,,,0.00,WeatherCatV1.20B785,2013-10-16 08:16:00,
2013-10-16 03:21:00,47.7,43.4,30.08,NNW,335,1.0,2.0,85,0.00,,,0.00,WeatherCatV1.20B785,2013-10-16 08:21:00,
2013-10-16 03:26:00,47.6,43.3,30.08,NNW,333,1.0,1.0,85,0.00,,,0.00,WeatherCatV1.20B785,2013-10-16 08:26:00,
2013-10-16 03:31:00,47.5,43.2,30.08,NNW,336,0.0,0.0,85,0.00,,,0.00,WeatherCatV1.20B785,2013-10-16 08:31:00,
2013-10-16 03:36:00,47.5,43.5,30.09,NNW,330,0.0,0.0,86,0.00,,,0.00,WeatherCatV1.20B785,2013-10-16 08:36:00,
2013-10-16 03:41:00,47.5,43.5,30.08,NNW,330,0.0,0.0,86,0.00,,,0.00,WeatherCatV1.20B785,2013-10-16 08:41:00,
2013-10-16 03:46:00,47.4,43.4,30.09,NNW,332,0.0,0.0,86,0.00,,,0.00,WeatherCatV1.20B785,2013-10-16 08:46:00,
2013-10-16 03:51:00,47.3,43.6,30.08,NNW,332,0.0,0.0,87,0.00,,,0.00,WeatherCatV1.20B785,2013-10-16 08:51:00,
2013-10-16 03:56:00,47.3,43.6,30.08,NNW,332,0.0,2.0,87,0.00,,,0.00,WeatherCatV1.20B785,2013-10-16 08:56:00,
2013-10-16 04:03:00,47.0,43.3,30.08,NNW,340,2.0,4.0,87,0.00,,,0.00,WeatherCatV1.20B785,2013-10-16 09:03:00,
2013-10-16 04:08:00,46.9,43.2,30.07,NNW,340,0.0,0.0,87,0.00,,,0.00,WeatherCatV1.20B785,2013-10-16 09:08:00,
2013-10-16 04:13:00,46.7,43.0,30.07,NNW,344,2.0,4.0,87,0.00,,,0.00,WeatherCatV1.20B785,2013-10-16 09:13:00,
2013-10-16 04:18:00,46.6,42.9,30.07,NNW,331,2.0,3.0,87,0.00,,,0.00,WeatherCatV1.20B785,2013-10-16 09:18:00,
2013-10-16 04:23:00,46.4,42.7,30.08,NW,324,0.0,1.0,87,0.00,,,0.00,WeatherCatV1.20B785,2013-10-16 09:23:00,
2013-10-16 04:28:00,46.4,42.7,30.08,NNW,347,0.0,2.0,87,0.00,,,0.00,WeatherCatV1.20B785,2013-10-16 09:28:00,
2013-10-16 04:33:00,46.3,42.7,30.08,NNW,348,0.0,3.0,87,0.00,,,0.00,WeatherCatV1.20B785,2013-10-16 09:33:00,
2013-10-16 04:38:00,46.2,42.5,30.08,NNW,340,0.0,0.0,87,0.00,,,0.00,WeatherCatV1.20B785,2013-10-16 09:38:00,
2013-10-16 04:43:00,46.1,42.8,30.08,NNW,340,0.0,0.0,88,0.00,,,0.00,WeatherCatV1.20B785,2013-10-16 09:43:00,
2013-10-16 04:48:00,46.0,42.7,30.08,NNW,340,0.0,0.0,88,0.00,,,0.00,WeatherCatV1.20B785,2013-10-16 09:48:00,
2013-10-16 04:53:00,45.8,42.5,30.08,NNW,340,0.0,0.0,88,0.00,,,0.00,WeatherCatV1.20B785,2013-10-16 09:53:00,
2013-10-16 04:58:00,45.6,42.2,30.08,NNW,340,0.0,0.0,88,0.00,,,0.00,WeatherCatV1.20B785,2013-10-16 09:58:00,
2013-10-16 05:03:00,45.4,42.1,30.08,NNW,340,1.0,1.0,88,0.00,,,0.00,WeatherCatV1.20B785,2013-10-16 10:03:00,
2013-10-16 05:08:00,45.3,42.0,30.08,NNW,341,0.0,3.0,88,0.00,,,0.00,WeatherCatV1.20B785,2013-10-16 10:08:00,
2013-10-16 05:13:00,45.1,42.0,30.07,NNW,331,2.0,3.0,89,0.00,,,0.00,WeatherCatV1.20B785,2013-10-16 10:13:00,
2013-10-16 05:18:00,45.0,42.0,30.07,NNE,22,1.0,4.0,89,0.00,,,0.00,WeatherCatV1.20B785,2013-10-16 10:18:00,
2013-10-16 05:23:00,45.0,42.0,30.07,NNW,341,1.0,2.0,89,0.00,,,0.00,WeatherCatV1.20B785,2013-10-16 10:23:00,
2013-10-16 05:28:00,45.0,41.7,30.07,NNW,344,0.0,3.0,88,0.00,,,0.00,WeatherCatV1.20B785,2013-10-16 10:28:00,
2013-10-16 05:33:00,44.9,41.6,30.07,NNW,348,2.0,2.0,88,0.00,,,0.00,WeatherCatV1.20B785,2013-10-16 10:33:00,
2013-10-16 05:38:00,44.9,41.6,30.07,NNW,340,3.0,3.0,88,0.00,,,0.00,WeatherCatV1.20B785,2013-10-16 10:38:00,
2013-10-16 05:43:00,44.7,41.4,30.07,NNW,338,1.0,4.0,88,0.00,,,0.00,WeatherCatV1.20B785,2013-10-16 10:43:00,
2013-10-16 05:48:00,44.6,41.3,30.07,North,350,1.0,4.0,88,0.00,,,0.00,WeatherCatV1.20B785,2013-10-16 10:48:00,
2013-10-16 05:53:00,44.4,41.1,30.07,North,350,1.0,3.0,88,0.00,,,0.00,WeatherCatV1.20B785,2013-10-16 10:53:00,
2013-10-16 05:58:00,44.2,40.9,30.07,North,355,2.0,2.0,88,0.00,,,0.00,WeatherCatV1.20B785,2013-10-16 10:58:00,
2013-10-16 06:03:00,44.1,40.8,30.07,NW,321,0.0,2.0,88,0.00,,,0.00,WeatherCatV1.20B785,2013-10-16 11:03:00,
2013-10-16 06:08:00,44.0,40.7,30.07,West,276,0.0,2.0,88,0.00,,,0.00,WeatherCatV1.20B785,2013-10-16 11:08:00,
2013-10-16 06:13:00,43.9,40.9,30.07,West,276,0.0,0.0,89,0.00,,,0.00,WeatherCatV1.20B785,2013-10-16 11:13:00,
2013-10-16 06:18:00,43.8,40.8,30.08,West,276,0.0,0.0,89,0.00,,,0.00,WeatherCatV1.20B785,2013-10-16 11:18:00,
2013-10-16 06:23:00,43.6,40.6,30.08,West,276,0.0,0.0,89,0.00,,,0.00,WeatherCatV1.20B785,2013-10-16 11:23:00,
2013-10-16 06:28:00,43.4,40.4,30.08,West,276,0.0,0.0,89,0.00,,,0.00,WeatherCatV1.20B785,2013-10-16 11:28:00,
2013-10-16 06:33:00,43.3,40.3,30.08,West,276,0.0,0.0,89,0.00,,,0.00,WeatherCatV1.20B785,2013-10-16 11:33:00,
2013-10-16 06:38:00,43.1,40.1,30.08,West,276,0.0,0.0,89,0.00,,,0.00,WeatherCatV1.20B785,2013-10-16 11:38:00,
2013-10-16 06:43:00,42.9,39.9,30.08,West,276,0.0,0.0,89,0.00,,,0.00,WeatherCatV1.20B785,2013-10-16 11:43:00,
2013-10-16 06:48:00,42.8,39.8,30.08,West,276,0.0,0.0,89,0.00,,,0.00,WeatherCatV1.20B785,2013-10-16 11:48:00,
2013-10-16 06:53:00,42.5,39.5,30.08,NNW,328,1.0,3.0,89,0.00,,,0.00,WeatherCatV1.20B785,2013-10-16 11:53:00,
2013-10-16 06:58:00,42.3,39.6,30.09,NNW,327,0.0,2.0,90,0.00,,,0.00,WeatherCatV1.20B785,2013-10-16 11:58:00,
2013-10-16 07:03:00,42.1,39.4,30.09,North,5,0.0,1.0,90,0.00,,,0.00,WeatherCatV1.20B785,2013-10-16 12:03:00,
2013-10-16 07:08:00,41.9,39.2,30.09,NW,321,2.0,3.0,90,0.00,,,0.00,WeatherCatV1.20B785,2013-10-16 12:08:00,
2013-10-16 07:13:00,41.8,39.1,30.09,NW,306,0.0,1.0,90,0.00,,,0.00,WeatherCatV1.20B785,2013-10-16 12:13:00,
2013-10-16 07:18:00,41.7,39.3,30.09,North,355,2.0,2.0,91,0.00,,,0.00,WeatherCatV1.20B785,2013-10-16 12:18:00,
2013-10-16 07:23:00,41.6,39.2,30.09,NNW,330,2.0,4.0,91,0.00,,,0.00,WeatherCatV1.20B785,2013-10-16 12:23:00,
2013-10-16 07:28:00,41.7,39.5,30.09,NW,312,2.0,4.0,92,0.00,,,0.00,WeatherCatV1.20B785,2013-10-16 12:28:00,
2013-10-16 07:33:00,41.7,39.5,30.09,NW,326,2.0,5.0,92,0.00,,,0.00,WeatherCatV1.20B785,2013-10-16 12:33:00,
2013-10-16 07:38:00,41.8,39.7,30.09,NNW,338,2.0,5.0,92,0.00,,,0.00,WeatherCatV1.20B785,2013-10-16 12:38:00,
2013-10-16 07:43:00,41.8,39.7,30.09,NNW,334,2.0,4.0,92,0.00,,,0.00,WeatherCatV1.20B785,2013-10-16 12:43:00,
2013-10-16 07:48:00,41.8,39.7,30.10,NNW,339,0.0,3.0,92,0.00,,,0.00,WeatherCatV1.20B785,2013-10-16 12:48:00,
2013-10-16 07:53:00,41.8,39.7,30.10,NW,309,0.0,1.0,92,0.00,,,0.00,WeatherCatV1.20B785,2013-10-16 12:53:00,
2013-10-16 07:58:00,41.9,39.8,30.10,NNW,329,4.0,4.0,92,0.00,,,0.00,WeatherCatV1.20B785,2013-10-16 12:58:00,
2013-10-16 08:03:00,42.1,40.0,30.10,NNW,342,5.0,5.0,92,0.00,,,0.00,WeatherCatV1.20B785,2013-10-16 13:03:00,
2013-10-16 08:08:00,42.4,40.2,30.10,NNW,331,5.0,5.0,92,0.00,,,0.00,WeatherCatV1.20B785,2013-10-16 13:08:00,
2013-10-16 08:13:00,42.7,40.5,30.10,North,350,4.0,6.0,92,0.00,,,0.00,WeatherCatV1.20B785,2013-10-16 13:13:00,
2013-10-16 08:18:00,43.1,40.9,30.10,NNW,327,5.0,5.0,92,0.00,,,0.00,WeatherCatV1.20B785,2013-10-16 13:18:00,
2013-10-16 08:23:00,43.4,41.0,30.11,NW,310,0.0,4.0,91,0.00,,,0.00,WeatherCatV1.20B785,2013-10-16 13:23:00,
2013-10-16 08:28:00,43.7,41.2,30.11,NNW,332,3.0,4.0,91,0.00,,,0.00,WeatherCatV1.20B785,2013-10-16 13:28:00,
2013-10-16 08:33:00,44.1,41.6,30.11,NNW,331,7.0,7.0,91,0.00,,,0.00,WeatherCatV1.20B785,2013-10-16 13:33:00,
2013-10-16 08:38:00,44.5,41.8,30.11,NW,323,4.0,6.0,90,0.00,,,0.00,WeatherCatV1.20B785,2013-10-16 13:38:00,
2013-10-16 08:43:00,44.9,42.2,30.11,NW,325,4.0,9.0,90,0.00,,,0.00,WeatherCatV1.20B785,2013-10-16 13:43:00,
2013-10-16 08:48:00,45.2,42.2,30.11,NNW,332,4.0,5.0,89,0.00,,,0.00,WeatherCatV1.20B785,2013-10-16 13:48:00,
2013-10-16 08:53:00,45.6,42.0,30.12,NW,304,3.0,11.0,87,0.00,,,0.00,WeatherCatV1.20B785,2013-10-16 13:53:00,
2013-10-16 08:58:00,45.9,42.2,30.11,North,5,5.0,8.0,87,0.00,,,0.00,WeatherCatV1.20B785,2013-10-16 13:58:00,
2013-10-16 09:03:00,46.2,42.2,30.11,NNW,329,5.0,9.0,86,0.00,,,0.00,WeatherCatV1.20B785,2013-10-16 14:03:00,
2013-10-16 09:08:00,46.4,42.1,30.12,North,0,6.0,7.0,85,0.00,,,0.00,WeatherCatV1.20B785,2013-10-16 14:08:00,
2013-10-16 09:13:00,46.7,42.1,30.12,North,355,4.0,12.0,84,0.00,,,0.00,WeatherCatV1.20B785,2013-10-16 14:13:00,
2013-10-16 09:18:00,47.0,42.7,30.12,North,5,4.0,7.0,85,0.00,,,0.00,WeatherCatV1.20B785,2013-10-16 14:18:00,
2013-10-16 09:23:00,47.3,42.7,30.12,NW,325,5.0,10.0,84,0.00,,,0.00,WeatherCatV1.20B785,2013-10-16 14:23:00,
2013-10-16 09:28:00,47.5,42.3,30.13,NNW,344,6.0,10.0,82,0.00,,,0.00,WeatherCatV1.20B785,2013-10-16 14:28:00,
2013-10-16 09:33:00,47.8,42.9,30.13,NW,326,5.0,9.0,83,0.00,,,0.00,WeatherCatV1.20B785,2013-10-16 14:33:00,
2013-10-16 09:38:00,48.1,42.5,30.13,North,351,8.0,8.0,81,0.00,,,0.00,WeatherCatV1.20B785,2013-10-16 14:38:00,
2013-10-16 09:43:00,48.4,42.8,30.13,NW,314,6.0,8.0,81,0.00,,,0.00,WeatherCatV1.20B785,2013-10-16 14:43:00,
2013-10-16 09:48:00,48.7,43.1,30.13,NW,321,7.0,9.0,81,0.00,,,0.00,WeatherCatV1.20B785,2013-10-16 14:48:00,
2013-10-16 09:53:00,48.8,42.6,30.13,NNW,329,4.0,11.0,79,0.00,,,0.00,WeatherCatV1.20B785,2013-10-16 14:53:00,
2013-10-16 09:58:00,48.9,42.7,30.13,North,355,6.0,9.0,79,0.00,,,0.00,WeatherCatV1.20B785,2013-10-16 14:58:00,
2013-10-16 10:03:00,49.0,42.8,30.13,NNW,343,6.0,12.0,79,0.00,,,0.00,WeatherCatV1.20B785,2013-10-16 15:03:00,
2013-10-16 10:08:00,49.1,42.9,30.13,NNW,336,4.0,7.0,79,0.00,,,0.00,WeatherCatV1.20B785,2013-10-16 15:08:00,
2013-10-16 10:13:00,49.4,43.5,30.13,North,349,5.0,7.0,80,0.00,,,0.00,WeatherCatV1.20B785,2013-10-16 15:13:00,
2013-10-16 10:18:00,49.7,43.5,30.13,NNW,346,5.0,11.0,79,0.00,,,0.00,WeatherCatV1.20B785,2013-10-16 15:18:00,
2013-10-16 10:23:00,49.9,43.7,30.13,NNW,345,5.0,8.0,79,0.00,,,0.00,WeatherCatV1.20B785,2013-10-16 15:23:00,
2013-10-16 10:28:00,50.0,43.4,30.13,NNE,15,4.0,6.0,78,0.00,,,0.00,WeatherCatV1.20B785,2013-10-16 15:28:00,
2013-10-16 10:33:00,50.2,43.6,30.13,NNW,348,6.0,8.0,78,0.00,,,0.00,WeatherCatV1.20B785,2013-10-16 15:33:00,
2013-10-16 10:38:00,50.2,43.3,30.13,North,351,5.0,9.0,77,0.00,,,0.00,WeatherCatV1.20B785,2013-10-16 15:38:00,
2013-10-16 10:43:00,50.4,43.8,30.13,NNW,344,4.0,4.0,78,0.00,,,0.00,WeatherCatV1.20B785,2013-10-16 15:43:00,
2013-10-16 10:48:00,50.6,43.7,30.13,North,11,4.0,8.0,77,0.00,,,0.00,WeatherCatV1.20B785,2013-10-16 15:48:00,
2013-10-16 10:53:00,50.8,44.2,30.13,NW,306,4.0,9.0,78,0.00,,,0.00,WeatherCatV1.20B785,2013-10-16 15:53:00,
2013-10-16 10:58:00,50.9,44.3,30.13,NNW,340,5.0,5.0,78,0.00,,,0.00,WeatherCatV1.20B785,2013-10-16 15:58:00,
2013-10-16 11:03:00,51.2,44.2,30.13,WNW,296,4.0,6.0,77,0.00,,,0.00,WeatherCatV1.20B785,2013-10-16 16:03:00,
2013-10-16 11:08:00,51.8,45.2,30.13,North,355,4.0,5.0,78,0.00,,,0.00,WeatherCatV1.20B785,2013-10-16 16:08:00,
2013-10-16 11:13:00,52.2,45.5,30.13,WNW,293,5.0,6.0,78,0.00,,,0.00,WeatherCatV1.20B785,2013-10-16 16:13:00,
2013-10-16 11:18:00,52.2,44.5,30.13,NNW,338,9.0,9.0,75,0.00,,,0.00,WeatherCatV1.20B785,2013-10-16 16:18:00,
2013-10-16 11:23:00,52.1,44.8,30.13,NNW,341,3.0,6.0,76,0.00,,,0.00,WeatherCatV1.20B785,2013-10-16 16:23:00,
2013-10-16 11:28:00,52.3,44.3,30.13,WNW,291,6.0,7.0,74,0.00,,,0.00,WeatherCatV1.20B785,2013-10-16 16:28:00,
2013-10-16 11:33:00,52.5,44.5,30.13,West,271,4.0,8.0,74,0.00,,,0.00,WeatherCatV1.20B785,2013-10-16 16:33:00,
2013-10-16 11:38:00,52.6,44.5,30.13,NNW,333,4.0,7.0,74,0.00,,,0.00,WeatherCatV1.20B785,2013-10-16 16:38:00,
2013-10-16 11:43:00,52.8,45.1,30.12,NNW,334,4.0,6.0,75,0.00,,,0.00,WeatherCatV1.20B785,2013-10-16 16:43:00,
2013-10-16 11:48:00,53.1,45.4,30.12,WNW,298,1.0,7.0,75,0.00,,,0.00,WeatherCatV1.20B785,2013-10-16 16:48:00,
2013-10-16 11:53:00,53.4,45.3,30.12,WNW,290,5.0,9.0,74,0.00,,,0.00,WeatherCatV1.20B785,2013-10-16 16:53:00,
2013-10-16 11:58:00,53.8,45.7,30.12,North,9,1.0,5.0,74,0.00,,,0.00,WeatherCatV1.20B785,2013-10-16 16:58:00,
2013-10-16 12:03:00,53.9,45.1,30.12,NW,323,7.0,9.0,72,0.00,,,0.00,WeatherCatV1.20B785,2013-10-16 17:03:00,
2013-10-16 12:08:00,54.0,45.5,30.12,West,273,3.0,9.0,73,0.00,,,0.00,WeatherCatV1.20B785,2013-10-16 17:08:00,
2013-10-16 12:13:00,54.0,44.8,30.11,NNW,340,5.0,8.0,71,0.00,,,0.00,WeatherCatV1.20B785,2013-10-16 17:13:00,
2013-10-16 12:18:00,54.0,45.9,30.11,North,0,3.0,7.0,74,0.00,,,0.00,WeatherCatV1.20B785,2013-10-16 17:18:00,
2013-10-16 12:23:00,54.2,45.7,30.11,WSW,243,0.0,6.0,73,0.00,,,0.00,WeatherCatV1.20B785,2013-10-16 17:23:00,
2013-10-16 12:28:00,54.4,45.6,30.11,WSW,257,0.0,6.0,72,0.00,,,0.00,WeatherCatV1.20B785,2013-10-16 17:28:00,
2013-10-16 12:33:00,54.6,45.4,30.10,North,5,3.0,9.0,71,0.00,,,0.00,WeatherCatV1.20B785,2013-10-16 17:33:00,
2013-10-16 12:38:00,54.6,45.8,30.10,WNW,298,6.0,8.0,72,0.00,,,0.00,WeatherCatV1.20B785,2013-10-16 17:38:00,
2013-10-16 12:43:00,54.8,45.6,30.10,West,277,1.0,6.0,71,0.00,,,0.00,WeatherCatV1.20B785,2013-10-16 17:43:00,
2013-10-16 12:48:00,55.0,46.1,30.10,North,350,3.0,8.0,72,0.00,,,0.00,WeatherCatV1.20B785,2013-10-16 17:48:00,
2013-10-16 12:53:00,55.0,45.4,30.09,NW,319,6.0,9.0,70,0.00,,,0.00,WeatherCatV1.20B785,2013-10-16 17:53:00,
2013-10-16 12:58:00,55.1,45.5,30.09,West,261,0.0,3.0,70,0.00,,,0.00,WeatherCatV1.20B785,2013-10-16 17:58:00,
2013-10-16 13:03:00,55.5,47.0,30.09,East,100,1.0,6.0,73,0.00,,,0.00,WeatherCatV1.20B785,2013-10-16 18:03:00,
2013-10-16 13:08:00,55.7,47.2,30.08,North,9,3.0,4.0,73,0.00,,,0.00,WeatherCatV1.20B785,2013-10-16 18:08:00,
2013-10-16 13:13:00,55.9,46.6,30.08,WNW,298,4.0,7.0,71,0.00,,,0.00,WeatherCatV1.20B785,2013-10-16 18:13:00,
2013-10-16 13:18:00,56.3,46.3,30.07,NW,319,3.0,8.0,69,0.00,,,0.00,WeatherCatV1.20B785,2013-10-16 18:18:00,
2013-10-16 13:23:00,56.1,46.1,30.07,ENE,61,0.0,1.0,69,0.00,,,0.00,WeatherCatV1.20B785,2013-10-16 18:23:00,
2013-10-16 13:27:00,56.5,47.6,30.07,North,355,2.0,5.0,72,0.00,,,0.00,WeatherCatV1.20B785,2013-10-16 18:27:00,
2013-10-16 13:32:00,56.8,47.1,30.07,WNW,284,5.0,7.0,70,0.00,,,0.00,WeatherCatV1.20B785,2013-10-16 18:32:00,
2013-10-16 13:37:00,56.9,47.2,30.07,NNW,347,4.0,7.0,70,0.00,,,0.00,WeatherCatV1.20B785,2013-10-16 18:37:00,
2013-10-16 13:42:00,56.9,46.8,30.07,NNW,334,3.0,8.0,69,0.00,,,0.00,WeatherCatV1.20B785,2013-10-16 18:42:00,
2013-10-16 13:47:00,57.1,47.4,30.06,NW,304,5.0,7.0,70,0.00,,,0.00,WeatherCatV1.20B785,2013-10-16 18:47:00,
2013-10-16 13:52:00,57.3,48.3,30.06,NNW,343,5.0,5.0,72,0.00,,,0.00,WeatherCatV1.20B785,2013-10-16 18:52:00,
2013-10-16 13:57:00,57.2,47.1,30.05,NNW,331,3.0,3.0,69,0.00,,,0.00,WeatherCatV1.20B785,2013-10-16 18:57:00,
2013-10-16 14:02:00,57.4,47.7,30.05,WNW,298,3.0,9.0,70,0.00,,,0.00,WeatherCatV1.20B785,2013-10-16 19:02:00,
2013-10-16 14:07:00,57.5,47.0,30.05,WSW,244,1.0,2.0,68,0.00,,,0.00,WeatherCatV1.20B785,2013-10-16 19:07:00,
2013-10-16 14:12:00,57.6,46.7,30.05,NNW,348,5.0,8.0,67,0.00,,,0.00,WeatherCatV1.20B785,2013-10-16 19:12:00,
2013-10-16 14:17:00,57.3,46.4,30.05,NE,44,1.0,9.0,67,0.00,,,0.00,WeatherCatV1.20B785,2013-10-16 19:17:00,
2013-10-16 14:22:00,57.4,46.9,30.05,NNW,347,6.0,8.0,68,0.00,,,0.00,WeatherCatV1.20B785,2013-10-16 19:22:00,
2013-10-16 14:27:00,57.3,46.8,30.05,NW,321,5.0,8.0,68,0.00,,,0.00,WeatherCatV1.20B785,2013-10-16 19:27:00,
2013-10-16 14:32:00,57.1,46.6,30.05,North,350,6.0,8.0,68,0.00,,,0.00,WeatherCatV1.20B785,2013-10-16 19:32:00,
2013-10-16 14:37:00,57.2,47.1,30.04,NW,323,9.0,9.0,69,0.00,,,0.00,WeatherCatV1.20B785,2013-10-16 19:37:00,
2013-10-16 14:42:00,57.3,46.8,30.04,North,5,6.0,6.0,68,0.00,,,0.00,WeatherCatV1.20B785,2013-10-16 19:42:00,
2013-10-16 14:47:00,57.2,46.3,30.04,North,10,6.0,10.0,67,0.00,,,0.00,WeatherCatV1.20B785,2013-10-16 19:47:00,
2013-10-16 14:52:00,57.5,47.4,30.04,NNE,26,2.0,5.0,69,0.00,,,0.00,WeatherCatV1.20B785,2013-10-16 19:52:00,
2013-10-16 14:57:00,57.9,48.5,30.04,ENE,68,3.0,3.0,71,0.00,,,0.00,WeatherCatV1.20B785,2013-10-16 19:57:00,
2013-10-16 15:02:00,58.0,47.1,30.04,North,11,3.0,6.0,67,0.00,,,0.00,WeatherCatV1.20B785,2013-10-16 20:02:00,
2013-10-16 15:07:00,58.0,47.1,30.04,WNW,298,1.0,8.0,67,0.00,,,0.00,WeatherCatV1.20B785,2013-10-16 20:07:00,
2013-10-16 15:12:00,57.9,47.0,30.04,NW,322,5.0,10.0,67,0.00,,,0.00,WeatherCatV1.20B785,2013-10-16 20:12:00,
2013-10-16 15:17:00,57.7,46.0,30.04,North,355,7.0,7.0,65,0.00,,,0.00,WeatherCatV1.20B785,2013-10-16 20:17:00,
2013-10-16 15:22:00,57.4,46.1,30.04,NNE,26,0.0,7.0,66,0.00,,,0.00,WeatherCatV1.20B785,2013-10-16 20:22:00,
2013-10-16 15:27:00,57.5,47.0,30.03,North,10,4.0,7.0,68,0.00,,,0.00,WeatherCatV1.20B785,2013-10-16 20:27:00,
2013-10-16 15:32:00,57.6,46.3,30.03,NW,319,0.0,6.0,66,0.00,,,0.00,WeatherCatV1.20B785,2013-10-16 20:32:00,
2013-10-16 15:37:00,57.8,47.7,30.03,West,279,0.0,4.0,69,0.00,,,0.00,WeatherCatV1.20B785,2013-10-16 20:37:00,
2013-10-16 15:42:00,58.1,48.0,30.03,North,351,5.0,5.0,69,0.00,,,0.00,WeatherCatV1.20B785,2013-10-16 20:42:00,
2013-10-16 15:47:00,58.2,46.9,30.03,North,355,4.0,5.0,66,0.00,,,0.00,WeatherCatV1.20B785,2013-10-16 20:47:00,
2013-10-16 15:52:00,58.3,47.4,30.03,WNW,292,1.0,8.0,67,0.00,,,0.00,WeatherCatV1.20B785,2013-10-16 20:52:00,
2013-10-16 15:57:00,58.6,47.7,30.03,NNW,342,5.0,6.0,67,0.00,,,0.00,WeatherCatV1.20B785,2013-10-16 20:57:00,
2013-10-16 16:02:00,58.6,47.7,30.03,WNW,302,4.0,6.0,67,0.00,,,0.00,WeatherCatV1.20B785,2013-10-16 21:02:00,
2013-10-16 16:07:00,58.5,46.8,30.03,NNW,328,3.0,5.0,65,0.00,,,0.00,WeatherCatV1.20B785,2013-10-16 21:07:00,
2013-10-16 16:12:00,58.4,46.7,30.03,WNW,302,4.0,6.0,65,0.00,,,0.00,WeatherCatV1.20B785,2013-10-16 21:12:00,
2013-10-16 16:17:00,58.3,46.6,30.03,NNW,341,6.0,7.0,65,0.00,,,0.00,WeatherCatV1.20B785,2013-10-16 21:17:00,
2013-10-16 16:22:00,58.0,46.3,30.03,NW,315,2.0,4.0,65,0.00,,,0.00,WeatherCatV1.20B785,2013-10-16 21:22:00,
2013-10-16 16:27:00,57.9,46.6,30.03,NNW,348,4.0,6.0,66,0.00,,,0.00,WeatherCatV1.20B785,2013-10-16 21:27:00,
2013-10-16 16:32:00,57.6,45.9,30.02,NNW,346,2.0,3.0,65,0.00,,,0.00,WeatherCatV1.20B785,2013-10-16 21:32:00,
2013-10-16 16:37:00,57.4,46.1,30.02,North,350,2.0,4.0,66,0.00,,,0.00,WeatherCatV1.20B785,2013-10-16 21:37:00,
2013-10-16 16:42:00,57.3,46.8,30.02,NNW,342,3.0,4.0,68,0.00,,,0.00,WeatherCatV1.20B785,2013-10-16 21:42:00,
2013-10-16 16:47:00,57.0,46.5,30.02,SSW,211,0.0,4.0,68,0.00,,,0.00,WeatherCatV1.20B785,2013-10-16 21:47:00,
2013-10-16 16:52:00,56.8,46.7,30.02,NW,318,0.0,3.0,69,0.00,,,0.00,WeatherCatV1.20B785,2013-10-16 21:52:00,
2013-10-16 16:57:00,56.5,46.1,30.02,NNW,331,3.0,7.0,68,0.00,,,0.00,WeatherCatV1.20B785,2013-10-16 21:57:00,
2013-10-16 17:02:00,56.1,45.7,30.02,WNW,303,3.0,7.0,68,0.00,,,0.00,WeatherCatV1.20B785,2013-10-16 22:02:00,
2013-10-16 17:07:00,55.8,45.4,30.02,NNW,344,2.0,7.0,68,0.00,,,0.00,WeatherCatV1.20B785,2013-10-16 22:07:00,
2013-10-16 17:12:00,55.7,46.1,30.02,NNW,342,0.0,0.0,70,0.00,,,0.00,WeatherCatV1.20B785,2013-10-16 22:12:00,
2013-10-16 17:17:00,55.7,46.1,30.02,West,271,1.0,2.0,70,0.00,,,0.00,WeatherCatV1.20B785,2013-10-16 22:17:00,
2013-10-16 17:22:00,55.5,46.2,30.02,WNW,300,1.0,5.0,71,0.00,,,0.00,WeatherCatV1.20B785,2013-10-16 22:22:00,
2013-10-16 17:27:00,55.3,46.1,30.02,NNW,334,2.0,3.0,71,0.00,,,0.00,WeatherCatV1.20B785,2013-10-16 22:27:00,
2013-10-16 17:32:00,55.0,46.1,30.02,WNW,294,0.0,2.0,72,0.00,,,0.00,WeatherCatV1.20B785,2013-10-16 22:32:00,
2013-10-16 17:37:00,54.9,46.4,30.03,NW,307,0.0,0.0,73,0.00,,,0.00,WeatherCatV1.20B785,2013-10-16 22:37:00,
2013-10-16 17:42:00,54.8,46.3,30.03,North,355,1.0,3.0,73,0.00,,,0.00,WeatherCatV1.20B785,2013-10-16 22:42:00,
2013-10-16 17:47:00,54.8,47.0,30.03,WNW,286,0.0,0.0,75,0.00,,,0.00,WeatherCatV1.20B785,2013-10-16 22:47:00,
2013-10-16 17:52:00,54.7,46.9,30.03,West,272,0.0,0.0,75,0.00,,,0.00,WeatherCatV1.20B785,2013-10-16 22:52:00,
2013-10-16 17:57:00,54.6,46.8,30.03,West,273,0.0,1.0,75,0.00,,,0.00,WeatherCatV1.20B785,2013-10-16 22:57:00,
2013-10-16 18:02:00,54.5,46.7,30.03,West,273,0.0,0.0,75,0.00,,,0.00,WeatherCatV1.20B785,2013-10-16 23:02:00,
2013-10-16 18:07:00,54.4,46.6,30.03,West,273,0.0,0.0,75,0.00,,,0.00,WeatherCatV1.20B785,2013-10-16 23:07:00,
2013-10-16 18:12:00,54.3,46.5,30.03,West,273,0.0,0.0,75,0.00,,,0.00,WeatherCatV1.20B785,2013-10-16 23:12:00,
2013-10-16 18:17:00,54.1,46.3,30.03,West,273,0.0,0.0,75,0.00,,,0.00,WeatherCatV1.20B785,2013-10-16 23:17:00,
2013-10-16 18:22:00,53.9,46.5,30.03,West,273,0.0,0.0,76,0.00,,,0.00,WeatherCatV1.20B785,2013-10-16 23:22:00,
2013-10-16 18:27:00,53.6,46.2,30.03,West,273,0.0,0.0,76,0.00,,,0.00,WeatherCatV1.20B785,2013-10-16 23:27:00,
2013-10-16 18:32:00,53.4,46.0,30.04,West,273,0.0,0.0,76,0.00,,,0.00,WeatherCatV1.20B785,2013-10-16 23:32:00,
2013-10-16 18:37:00,53.1,46.1,30.04,West,273,0.0,0.0,77,0.00,,,0.00,WeatherCatV1.20B785,2013-10-16 23:37:00,
2013-10-16 18:42:00,52.8,46.1,30.04,West,273,0.0,0.0,78,0.00,,,0.00,WeatherCatV1.20B785,2013-10-16 23:42:00,
2013-10-16 18:47:00,52.6,45.9,30.04,West,273,0.0,0.0,78,0.00,,,0.00,WeatherCatV1.20B785,2013-10-16 23:47:00,
2013-10-16 18:52:00,52.3,46.0,30.03,West,273,0.0,0.0,79,0.00,,,0.00,WeatherCatV1.20B785,2013-10-16 23:52:00,
2013-10-16 18:57:00,52.0,45.7,30.03,West,273,0.0,0.0,79,0.00,,,0.00,WeatherCatV1.20B785,2013-10-16 23:57:00,
2013-10-16 19:02:00,51.6,45.6,30.03,West,273,0.0,0.0,80,0.00,,,0.00,WeatherCatV1.20B785,2013-10-17 00:02:00,
2013-10-16 19:07:00,51.2,45.2,30.03,West,273,0.0,0.0,80,0.00,,,0.00,WeatherCatV1.20B785,2013-10-17 00:07:00,
2013-10-16 19:12:00,51.0,45.4,30.04,West,273,0.0,0.0,81,0.00,,,0.00,WeatherCatV1.20B785,2013-10-17 00:12:00,
2013-10-16 19:17:00,50.7,45.1,30.04,West,273,0.0,0.0,81,0.00,,,0.00,WeatherCatV1.20B785,2013-10-17 00:17:00,
2013-10-16 19:22:00,50.4,45.1,30.04,West,273,0.0,0.0,82,0.00,,,0.00,WeatherCatV1.20B785,2013-10-17 00:22:00,
2013-10-16 19:27:00,50.0,45.0,30.05,West,273,0.0,0.0,83,0.00,,,0.00,WeatherCatV1.20B785,2013-10-17 00:27:00,
2013-10-16 19:32:00,49.8,44.8,30.04,West,273,0.0,0.0,83,0.00,,,0.00,WeatherCatV1.20B785,2013-10-17 00:32:00,
2013-10-16 19:37:00,49.6,45.0,30.05,West,273,0.0,0.0,84,0.00,,,0.00,WeatherCatV1.20B785,2013-10-17 00:37:00,
2013-10-16 19:42:00,49.5,44.9,30.04,West,273,0.0,0.0,84,0.00,,,0.00,WeatherCatV1.20B785,2013-10-17 00:42:00,
2013-10-16 19:47:00,49.4,45.4,30.05,West,273,0.0,0.0,86,0.00,,,0.00,WeatherCatV1.20B785,2013-10-17 00:47:00,
2013-10-16 19:52:00,49.3,45.3,30.05,West,273,0.0,0.0,86,0.00,,,0.00,WeatherCatV1.20B785,2013-10-17 00:52:00,
2013-10-16 19:57:00,49.2,45.5,30.05,West,273,0.0,0.0,87,0.00,,,0.00,WeatherCatV1.20B785,2013-10-17 00:57:00,
2013-10-16 20:02:00,49.1,45.4,30.05,West,273,0.0,0.0,87,0.00,,,0.00,WeatherCatV1.20B785,2013-10-17 01:02:00,
2013-10-16 20:07:00,49.0,45.3,30.06,West,273,0.0,0.0,87,0.00,,,0.00,WeatherCatV1.20B785,2013-10-17 01:07:00,
2013-10-16 20:12:00,48.9,45.2,30.06,West,273,0.0,0.0,87,0.00,,,0.00,WeatherCatV1.20B785,2013-10-17 01:12:00,
2013-10-16 20:17:00,48.7,45.3,30.06,WNW,300,0.0,0.0,88,0.00,,,0.00,WeatherCatV1.20B785,2013-10-17 01:17:00,
2013-10-16 20:22:00,48.6,44.9,30.06,WNW,300,0.0,0.0,87,0.00,,,0.00,WeatherCatV1.20B785,2013-10-17 01:22:00,
2013-10-16 20:27:00,48.5,45.1,30.06,WNW,300,0.0,0.0,88,0.00,,,0.00,WeatherCatV1.20B785,2013-10-17 01:27:00,
2013-10-16 20:32:00,48.3,44.9,30.06,WNW,300,0.0,0.0,88,0.00,,,0.00,WeatherCatV1.20B785,2013-10-17 01:32:00,
2013-10-16 20:37:00,48.2,44.8,30.06,WNW,300,0.0,0.0,88,0.00,,,0.00,WeatherCatV1.20B785,2013-10-17 01:37:00,
2013-10-16 20:42:00,48.0,44.6,30.06,WNW,300,0.0,0.0,88,0.00,,,0.00,WeatherCatV1.20B785,2013-10-17 01:42:00,
2013-10-16 20:47:00,47.9,44.5,30.07,WNW,300,0.0,0.0,88,0.00,,,0.00,WeatherCatV1.20B785,2013-10-17 01:47:00,
2013-10-16 20:52:00,47.9,44.8,30.07,WNW,302,0.0,0.0,89,0.00,,,0.00,WeatherCatV1.20B785,2013-10-17 01:52:00,
2013-10-16 20:57:00,47.8,44.7,30.07,WNW,302,0.0,0.0,89,0.00,,,0.00,WeatherCatV1.20B785,2013-10-17 01:57:00,
2013-10-16 21:02:00,47.9,44.8,30.07,WNW,302,0.0,0.0,89,0.00,,,0.00,WeatherCatV1.20B785,2013-10-17 02:02:00,
2013-10-16 21:07:00,47.9,45.1,30.07,WNW,302,0.0,0.0,90,0.00,,,0.00,WeatherCatV1.20B785,2013-10-17 02:07:00,
2013-10-16 21:12:00,47.9,45.1,30.08,WNW,302,0.0,0.0,90,0.00,,,0.00,WeatherCatV1.20B785,2013-10-17 02:12:00,
2013-10-16 21:17:00,48.0,45.2,30.07,WNW,302,0.0,0.0,90,0.00,,,0.00,WeatherCatV1.20B785,2013-10-17 02:17:00,
2013-10-16 21:22:00,48.0,45.2,30.07,WNW,302,0.0,0.0,90,0.00,,,0.00,WeatherCatV1.20B785,2013-10-17 02:22:00,
2013-10-16 21:27:00,47.9,45.4,30.06,WNW,302,0.0,0.0,91,0.00,,,0.00,WeatherCatV1.20B785,2013-10-17 02:27:00,
2013-10-16 21:32:00,47.9,45.4,30.07,WNW,302,0.0,0.0,91,0.00,,,0.00,WeatherCatV1.20B785,2013-10-17 02:32:00,
2013-10-16 21:37:00,47.9,45.4,30.07,WNW,302,0.0,0.0,91,0.00,,,0.00,WeatherCatV1.20B785,2013-10-17 02:37:00,
2013-10-16 21:42:00,47.9,45.4,30.07,WNW,302,0.0,0.0,91,0.00,,,0.00,WeatherCatV1.20B785,2013-10-17 02:42:00,
2013-10-16 21:47:00,47.8,45.3,30.07,WNW,302,0.0,0.0,91,0.00,,,0.00,WeatherCatV1.20B785,2013-10-17 02:47:00,
2013-10-16 21:52:00,47.8,45.3,30.07,WNW,302,0.0,0.0,91,0.00,,,0.00,WeatherCatV1.20B785,2013-10-17 02:52:00,
2013-10-16 21:57:00,47.8,45.3,30.06,WNW,302,0.0,0.0,91,0.00,,,0.00,WeatherCatV1.20B785,2013-10-17 02:57:00,
2013-10-16 22:02:00,47.8,45.3,30.07,WNW,302,0.0,0.0,91,0.00,,,0.00,WeatherCatV1.20B785,2013-10-17 03:02:00,
2013-10-16 22:07:00,47.8,45.3,30.06,WNW,302,0.0,0.0,91,0.00,,,0.00,WeatherCatV1.20B785,2013-10-17 03:07:00,
2013-10-16 22:12:00,47.8,45.3,30.06,WNW,302,0.0,0.0,91,0.00,,,0.00,WeatherCatV1.20B785,2013-10-17 03:12:00,
2013-10-16 22:17:00,47.9,45.7,30.06,WNW,302,0.0,0.0,92,0.00,,,0.00,WeatherCatV1.20B785,2013-10-17 03:17:00,
2013-10-16 22:22:00,47.9,45.7,30.06,WNW,302,0.0,0.0,92,0.00,,,0.00,WeatherCatV1.20B785,2013-10-17 03:22:00,
2013-10-16 22:27:00,47.9,45.7,30.06,WNW,302,0.0,0.0,92,0.00,,,0.00,WeatherCatV1.20B785,2013-10-17 03:27:00,
2013-10-16 22:32:00,47.9,45.7,30.07,WNW,302,0.0,0.0,92,0.00,,,0.00,WeatherCatV1.20B785,2013-10-17 03:32:00,
2013-10-16 22:37:00,47.9,45.7,30.07,WNW,302,0.0,0.0,92,0.00,,,0.00,WeatherCatV1.20B785,2013-10-17 03:37:00,
2013-10-16 22:42:00,47.9,45.7,30.06,WNW,302,0.0,0.0,92,0.00,,,0.00,WeatherCatV1.20B785,2013-10-17 03:42:00,
2013-10-16 22:47:00,47.9,45.7,30.06,WNW,302,0.0,0.0,92,0.00,,,0.00,WeatherCatV1.20B785,2013-10-17 03:47:00,
2013-10-16 22:52:00,48.0,46.1,30.07,WNW,302,0.0,0.0,93,0.00,,,0.00,WeatherCatV1.20B785,2013-10-17 03:52:00,
2013-10-16 22:57:00,48.0,46.1,30.06,WNW,302,0.0,0.0,93,0.00,,,0.00,WeatherCatV1.20B785,2013-10-17 03:57:00,
2013-10-16 23:01:00,48.0,46.1,30.06,WNW,302,0.0,0.0,93,0.00,,,0.00,WeatherCatV1.20B785,2013-10-17 04:01:00,
2013-10-16 23:06:00,48.1,46.2,30.06,WNW,302,0.0,0.0,93,0.00,,,0.00,WeatherCatV1.20B785,2013-10-17 04:06:00,
2013-10-16 23:11:00,48.1,46.2,30.06,WNW,302,0.0,0.0,93,0.00,,,0.00,WeatherCatV1.20B785,2013-10-17 04:11:00,
2013-10-16 23:16:00,48.2,46.3,30.06,WNW,302,0.0,0.0,93,0.00,,,0.00,WeatherCatV1.20B785,2013-10-17 04:16:00,
2013-10-16 23:21:00,48.2,46.3,30.06,WNW,302,0.0,0.0,93,0.00,,,0.00,WeatherCatV1.20B785,2013-10-17 04:21:00,
2013-10-16 23:26:00,48.2,46.3,30.06,WNW,302,0.0,0.0,93,0.00,,,0.00,WeatherCatV1.20B785,2013-10-17 04:26:00,
2013-10-16 23:31:00,48.2,46.3,30.05,WNW,302,0.0,0.0,93,0.00,,,0.00,WeatherCatV1.20B785,2013-10-17 04:31:00,
2013-10-16 23:36:00,48.3,46.7,30.05,WNW,302,0.0,0.0,94,0.00,,,0.00,WeatherCatV1.20B785,2013-10-17 04:36:00,
2013-10-16 23:41:00,48.4,46.8,30.05,WNW,302,0.0,0.0,94,0.00,,,0.00,WeatherCatV1.20B785,2013-10-17 04:41:00,
2013-10-16 23:46:00,48.4,46.8,30.04,WNW,302,0.0,0.0,94,0.00,,,0.00,WeatherCatV1.20B785,2013-10-17 04:46:00,
2013-10-16 23:51:00,48.4,46.8,30.04,WNW,302,0.0,0.0,94,0.00,,,0.00,WeatherCatV1.20B785,2013-10-17 04:51:00,
2013-10-16 23:56:00,48.4,46.8,30.04,WNW,302,0.0,0.0,94,0.00,,,0.00,WeatherCatV1.20B785,2013-10-17 04:56:00,